createdAt,value
2022-11-12T00:01:13.915Z,8.47
2022-11-12T00:03:42.240Z,8.44
2022-11-12T00:06:09.962Z,8.44
2022-11-12T00:08:37.945Z,8.45
2022-11-12T00:11:06.094Z,8.40
2022-11-12T00:13:33.762Z,8.40
2022-11-12T00:16:01.373Z,8.42
2022-11-12T00:18:29.301Z,8.43
2022-11-12T00:20:57.245Z,8.45
2022-11-12T00:23:24.914Z,8.46
2022-11-12T00:26:02.989Z,8.50
2022-11-12T00:28:36.352Z,8.49
2022-11-12T00:31:10.545Z,8.49
2022-11-12T00:33:42.325Z,8.46
2022-11-12T00:36:10.851Z,8.44
2022-11-12T00:38:38.513Z,8.42
2022-11-12T00:41:06.370Z,8.41
2022-11-12T00:43:34.046Z,8.43
2022-11-12T00:46:01.678Z,8.41
2022-11-12T00:48:29.478Z,8.40
2022-11-12T00:51:10.145Z,8.40
2022-11-12T00:53:37.815Z,8.38
2022-11-12T00:56:07.686Z,8.36
2022-11-12T00:58:37.205Z,8.41
2022-11-12T01:01:15.669Z,8.43
2022-11-12T01:03:43.968Z,8.45
2022-11-12T01:06:19.892Z,8.49
2022-11-12T01:08:49.426Z,8.52
2022-11-12T01:11:26.494Z,8.52
2022-11-12T01:14:00.528Z,8.52
2022-11-12T01:16:32.218Z,8.56
2022-11-12T01:19:01.635Z,8.58
2022-11-12T01:21:31.534Z,8.61
2022-11-12T01:24:00.737Z,8.53
2022-11-12T01:26:32.051Z,8.56
2022-11-12T01:28:59.911Z,8.59
2022-11-12T01:31:30.162Z,8.57
2022-11-12T01:34:00.487Z,8.54
2022-11-12T01:36:29.802Z,8.52
2022-11-12T01:38:57.598Z,8.54
2022-11-12T01:41:36.096Z,8.47
2022-11-12T01:44:17.378Z,8.38
2022-11-12T01:47:03.616Z,8.41
2022-11-12T01:49:57.503Z,8.34
2022-11-12T01:52:30.976Z,8.31
2022-11-12T01:55:08.753Z,8.33
2022-11-12T01:57:42.643Z,8.28
2022-11-12T02:00:13.556Z,8.27
2022-11-12T02:02:43.599Z,8.27
2022-11-12T02:05:13.120Z,8.30
2022-11-12T02:07:43.276Z,8.31
2022-11-12T02:10:11.380Z,8.29
2022-11-12T02:12:58.570Z,8.24
2022-11-12T02:15:27.412Z,8.18
2022-11-12T02:17:55.152Z,8.15
2022-11-12T02:20:22.929Z,8.15
2022-11-12T02:22:50.621Z,8.16
2022-11-12T02:25:22.029Z,8.14
2022-11-12T02:27:52.968Z,8.16
2022-11-12T02:30:21.301Z,8.20
2022-11-12T02:32:48.927Z,8.16
2022-11-12T02:35:16.624Z,8.13
2022-11-12T02:37:44.248Z,8.14
2022-11-12T02:40:12.063Z,8.15
2022-11-12T02:42:39.629Z,8.17
2022-11-12T02:45:07.587Z,8.19
2022-11-12T02:47:35.261Z,8.21
2022-11-12T02:50:02.943Z,8.22
2022-11-12T02:52:30.551Z,8.23
2022-11-12T02:54:58.237Z,8.27
2022-11-12T02:57:25.942Z,8.29
2022-11-12T02:59:53.521Z,8.31
2022-11-12T03:02:21.147Z,8.31
2022-11-12T03:04:49.673Z,8.29
2022-11-12T03:07:17.702Z,8.27
2022-11-12T03:09:45.347Z,8.27
2022-11-12T03:12:13.022Z,8.30
2022-11-12T03:14:40.613Z,8.28
2022-11-12T03:17:08.277Z,8.27
2022-11-12T03:19:35.967Z,8.28
2022-11-12T03:22:03.575Z,8.23
2022-11-12T03:24:31.176Z,8.21
2022-11-12T03:26:59.744Z,8.19
2022-11-12T03:29:28.012Z,8.22
2022-11-12T03:31:55.638Z,8.20
2022-11-12T03:34:23.240Z,8.19
2022-11-12T03:36:50.973Z,8.19
2022-11-12T03:39:18.620Z,8.15
2022-11-12T03:41:46.281Z,8.14
2022-11-12T03:44:13.924Z,8.14
2022-11-12T03:46:44.160Z,8.16
2022-11-12T03:49:12.317Z,8.19
2022-11-12T03:51:39.935Z,8.11
2022-11-12T03:54:07.733Z,8.03
2022-11-12T03:56:35.385Z,7.99
2022-11-12T03:59:03.162Z,7.98
2022-11-12T04:01:30.808Z,7.95
2022-11-12T04:03:58.795Z,7.95
2022-11-12T04:06:45.083Z,7.93
2022-11-12T04:09:12.920Z,7.92
2022-11-12T04:11:40.574Z,7.94
2022-11-12T04:14:08.247Z,7.95
2022-11-12T04:16:54.407Z,7.94
2022-11-12T04:19:40.513Z,7.92
2022-11-12T04:22:10.807Z,7.93
2022-11-12T04:24:59.755Z,7.95
2022-11-12T04:27:35.269Z,8.04
2022-11-12T04:30:32.182Z,8.09
2022-11-12T04:32:59.856Z,8.13
2022-11-12T04:35:28.506Z,8.13
2022-11-12T04:37:56.396Z,8.13
2022-11-12T04:40:44.872Z,8.15
2022-11-12T04:43:36.953Z,8.14
2022-11-12T04:46:06.294Z,8.16
2022-11-12T04:48:34.357Z,8.18
2022-11-12T04:51:04.043Z,8.21
2022-11-12T04:53:31.948Z,8.22
2022-11-12T04:56:00.695Z,8.17
2022-11-12T04:58:28.674Z,8.17
2022-11-12T05:00:56.567Z,8.19
2022-11-12T05:03:24.238Z,8.16
2022-11-12T05:05:51.901Z,8.18
2022-11-12T05:08:19.516Z,8.19
2022-11-12T05:10:47.119Z,8.17
2022-11-12T05:13:14.751Z,8.13
2022-11-12T05:15:46.384Z,8.12
2022-11-12T05:18:14.020Z,8.13
2022-11-12T05:20:41.690Z,8.17
2022-11-12T05:23:09.353Z,8.18
2022-11-12T05:25:37.402Z,8.18
2022-11-12T05:28:07.011Z,8.19
2022-11-12T05:30:35.073Z,8.22
2022-11-12T05:33:02.690Z,8.27
2022-11-12T05:35:30.283Z,8.27
2022-11-12T05:37:57.903Z,8.31
2022-11-12T05:40:25.517Z,8.37
2022-11-12T05:42:53.180Z,8.40
2022-11-12T05:45:20.814Z,8.41
2022-11-12T05:47:49.064Z,8.43
2022-11-12T05:50:16.749Z,8.43
2022-11-12T05:52:44.434Z,8.39
2022-11-12T05:55:12.102Z,8.35
2022-11-12T05:57:39.728Z,8.35
2022-11-12T06:00:08.172Z,8.37
2022-11-12T06:02:35.840Z,8.37
2022-11-12T06:05:03.500Z,8.34
2022-11-12T06:07:31.179Z,8.35
2022-11-12T06:09:58.799Z,8.33
2022-11-12T06:12:26.398Z,8.29
2022-11-12T06:14:54.007Z,8.24
2022-11-12T06:17:22.549Z,8.22
2022-11-12T06:19:50.188Z,8.20
2022-11-12T06:22:17.776Z,8.18
2022-11-12T06:24:45.421Z,8.15
2022-11-12T06:27:13.060Z,8.15
2022-11-12T06:29:40.744Z,8.15
2022-11-12T06:32:08.345Z,8.11
2022-11-12T06:34:35.965Z,8.09
2022-11-12T06:37:03.576Z,8.01
2022-11-12T06:39:31.231Z,7.98
2022-11-12T06:41:58.921Z,7.97
2022-11-12T06:44:26.659Z,7.92
2022-11-12T06:46:54.318Z,7.93
2022-11-12T06:49:21.966Z,7.93
2022-11-12T06:51:51.647Z,7.95
2022-11-12T06:54:19.318Z,7.97
2022-11-12T06:56:46.940Z,7.96
2022-11-12T06:59:14.650Z,7.99
2022-11-12T07:01:42.355Z,7.97
2022-11-12T07:04:11.721Z,8.02
2022-11-12T07:06:39.489Z,8.00
2022-11-12T07:09:07.411Z,7.99
2022-11-12T07:11:35.223Z,7.98
2022-11-12T07:14:02.915Z,8.03
2022-11-12T07:16:30.490Z,8.04
2022-11-12T07:18:58.110Z,8.07
2022-11-12T07:21:26.061Z,8.06
2022-11-12T07:23:53.989Z,8.08
2022-11-12T07:26:23.868Z,8.14
2022-11-12T07:28:53.582Z,8.19
2022-11-12T07:31:21.894Z,8.22
2022-11-12T07:33:50.628Z,8.28
2022-11-12T07:36:20.518Z,8.24
2022-11-12T07:38:48.862Z,8.19
2022-11-12T07:41:19.483Z,8.20
2022-11-12T07:43:49.323Z,8.27
2022-11-12T07:46:25.253Z,8.31
2022-11-12T07:48:54.250Z,8.34
2022-11-12T07:51:27.977Z,8.37
2022-11-12T07:53:59.502Z,8.41
2022-11-12T07:56:29.736Z,8.48
2022-11-12T07:58:57.455Z,8.39
2022-11-12T08:01:41.765Z,8.37
2022-11-12T08:04:11.547Z,8.37
2022-11-12T08:06:39.970Z,8.55
2022-11-12T08:09:09.607Z,8.69
2022-11-12T08:11:37.301Z,8.67
2022-11-12T08:14:04.946Z,8.76
2022-11-12T08:16:32.594Z,8.83
2022-11-12T08:19:00.393Z,8.90
2022-11-12T08:21:28.121Z,9.06
2022-11-12T08:23:55.767Z,9.12
2022-11-12T08:26:23.593Z,9.14
2022-11-12T08:28:51.267Z,9.19
2022-11-12T08:31:22.161Z,9.31
2022-11-12T08:33:50.254Z,9.43
2022-11-12T08:36:19.343Z,9.48
2022-11-12T08:38:47.297Z,9.47
2022-11-12T08:41:16.675Z,9.43
2022-11-12T08:43:44.486Z,9.41
2022-11-12T08:46:12.144Z,9.39
2022-11-12T08:48:41.222Z,9.32
2022-11-12T08:51:09.338Z,9.20
2022-11-12T08:53:37.246Z,9.33
2022-11-12T08:56:05.173Z,9.28
2022-11-12T08:58:32.824Z,9.22
2022-11-12T09:01:08.936Z,9.33
2022-11-12T09:03:36.588Z,9.33
2022-11-12T09:06:05.986Z,9.27
2022-11-12T09:08:36.339Z,9.27
2022-11-12T09:11:04.914Z,9.25
2022-11-12T09:13:32.977Z,9.19
2022-11-12T09:16:02.779Z,9.16
2022-11-12T09:18:31.023Z,9.13
2022-11-12T09:21:05.854Z,9.02
2022-11-12T09:23:35.841Z,8.93
2022-11-12T09:26:04.692Z,8.90
2022-11-12T09:28:32.743Z,8.79
2022-11-12T09:31:00.750Z,8.76
2022-11-12T09:33:32.406Z,8.74
2022-11-12T09:36:04.627Z,8.75
2022-11-12T09:38:32.939Z,8.73
2022-11-12T09:41:12.174Z,8.71
2022-11-12T09:43:53.249Z,8.68
2022-11-12T09:46:32.356Z,8.67
2022-11-12T09:49:23.055Z,8.70
2022-11-12T09:52:02.525Z,8.69
2022-11-12T09:54:33.780Z,8.70
2022-11-12T09:57:02.148Z,8.71
2022-11-12T09:59:35.642Z,8.69
2022-11-12T10:02:46.679Z,8.67
2022-11-12T10:05:17.215Z,8.62
2022-11-12T10:07:58.532Z,8.62
2022-11-12T10:10:56.748Z,8.62
2022-11-12T10:13:59.682Z,8.62
2022-11-12T10:16:45.769Z,8.62
2022-11-12T10:19:13.336Z,8.64
2022-11-12T10:22:19.453Z,8.62
2022-11-12T10:24:49.480Z,8.69
2022-11-12T10:27:22.937Z,8.71
2022-11-12T10:30:00.528Z,8.82
2022-11-12T10:32:28.715Z,8.85
2022-11-12T10:34:56.376Z,8.94
2022-11-12T10:37:42.582Z,8.93
2022-11-12T10:40:40.985Z,8.93
2022-11-12T10:43:17.648Z,8.94
2022-11-12T10:45:47.114Z,8.97
2022-11-12T10:48:41.125Z,8.99
2022-11-12T10:51:23.055Z,9.03
2022-11-12T10:53:50.689Z,9.11
2022-11-12T10:56:30.824Z,9.09
2022-11-12T10:59:16.655Z,9.01
2022-11-12T11:01:46.488Z,9.03
2022-11-12T11:04:30.284Z,9.05
2022-11-12T11:07:08.395Z,9.10
2022-11-12T11:09:36.051Z,9.13
2022-11-12T11:12:03.799Z,9.17
2022-11-12T11:14:34.145Z,9.15
2022-11-12T11:17:09.615Z,9.12
2022-11-12T11:19:40.281Z,9.15
2022-11-12T11:22:20.286Z,9.22
2022-11-12T11:25:15.793Z,9.31
2022-11-12T11:28:11.085Z,9.43
2022-11-12T11:30:49.917Z,9.52
2022-11-12T11:33:36.057Z,9.44
2022-11-12T11:36:23.175Z,9.44
2022-11-12T11:39:05.604Z,9.39
2022-11-12T11:41:35.895Z,9.28
2022-11-12T11:44:34.639Z,9.33
2022-11-12T11:47:38.576Z,9.33
2022-11-12T11:50:34.349Z,9.28
2022-11-12T11:53:44.733Z,9.35
2022-11-12T11:56:28.226Z,9.43
2022-11-12T11:59:47.674Z,9.42
2022-11-12T12:02:44.595Z,9.45
2022-11-12T12:05:24.243Z,9.46
2022-11-12T12:08:18.375Z,9.43
2022-11-12T12:11:13.820Z,9.38
2022-11-12T12:14:07.413Z,9.41
2022-11-12T12:16:47.288Z,9.44
2022-11-12T12:19:36.201Z,9.41
2022-11-12T12:22:06.840Z,9.37
2022-11-12T12:24:46.167Z,9.24
2022-11-12T12:27:21.265Z,9.24
2022-11-12T12:29:54.828Z,9.21
2022-11-12T12:32:28.901Z,9.18
2022-11-12T12:35:38.005Z,9.20
2022-11-12T12:38:15.531Z,9.24
2022-11-12T12:41:00.041Z,9.21
2022-11-12T12:43:40.559Z,9.12
2022-11-12T12:46:12.116Z,9.14
2022-11-12T12:48:43.947Z,9.13
2022-11-12T12:51:11.982Z,9.12
2022-11-12T12:53:39.857Z,9.12
2022-11-12T12:56:28.795Z,9.16
2022-11-12T12:58:56.540Z,9.13
2022-11-12T13:01:24.154Z,9.11
2022-11-12T13:03:54.988Z,9.05
2022-11-12T13:06:23.007Z,9.01
2022-11-12T13:08:58.241Z,9.01
2022-11-12T13:12:02.575Z,9.02
2022-11-12T13:14:35.847Z,9.03
2022-11-12T13:17:04.873Z,9.11
2022-11-12T13:19:36.344Z,9.15
2022-11-12T13:22:19.339Z,9.24
2022-11-12T13:25:25.994Z,9.28
2022-11-12T13:27:53.560Z,9.32
2022-11-12T13:30:23.934Z,9.35
2022-11-12T13:32:51.652Z,9.31
2022-11-12T13:35:25.055Z,9.35
2022-11-12T13:38:13.862Z,9.38
2022-11-12T13:40:47.957Z,9.42
2022-11-12T13:43:40.117Z,9.51
2022-11-12T13:46:07.709Z,9.57
2022-11-12T13:48:40.819Z,9.59
2022-11-12T13:51:14.322Z,9.67
2022-11-12T13:53:41.998Z,9.69
2022-11-12T13:56:12.584Z,9.64
2022-11-12T13:58:40.953Z,9.71
2022-11-12T14:01:09.076Z,9.72
2022-11-12T14:03:42.939Z,9.70
2022-11-12T14:06:30.584Z,9.63
2022-11-12T14:09:04.282Z,9.57
2022-11-12T14:12:05.731Z,9.54
2022-11-12T14:14:46.437Z,9.52
2022-11-12T14:17:32.721Z,9.48
2022-11-12T14:20:28.636Z,9.51
2022-11-12T14:22:56.391Z,9.49
2022-11-12T14:25:28.759Z,9.47
2022-11-12T14:27:57.463Z,9.45
2022-11-12T14:30:26.424Z,9.41
2022-11-12T14:32:59.640Z,9.41
2022-11-12T14:35:40.128Z,9.39
2022-11-12T14:38:10.891Z,9.33
2022-11-12T14:40:44.463Z,9.31
2022-11-12T14:43:27.345Z,9.30
2022-11-12T14:45:56.967Z,9.28
2022-11-12T14:48:24.992Z,9.30
2022-11-12T14:51:04.030Z,9.34
2022-11-12T14:53:36.048Z,9.29
2022-11-12T14:56:07.977Z,9.27
2022-11-12T14:58:36.401Z,9.25
2022-11-12T15:04:20.484Z,9.31
2022-11-12T15:06:56.172Z,9.25
2022-11-12T15:09:53.545Z,9.29
2022-11-12T15:12:27.956Z,9.26
2022-11-12T15:15:08.408Z,9.27
2022-11-12T15:17:38.238Z,9.24
2022-11-12T15:20:23.964Z,9.22
2022-11-12T15:22:53.349Z,9.17
2022-11-12T15:25:31.292Z,9.20
2022-11-12T15:28:23.244Z,9.17
2022-11-12T15:31:27.439Z,9.10
2022-11-12T15:33:57.365Z,9.03
2022-11-12T15:36:25.847Z,8.96
2022-11-12T15:38:56.646Z,8.93
2022-11-12T15:41:29.598Z,8.88
2022-11-12T15:43:58.361Z,8.89
2022-11-12T15:46:26.004Z,8.84
2022-11-12T15:48:56.157Z,8.82
2022-11-12T15:51:23.993Z,8.82
2022-11-12T15:53:51.926Z,8.78
2022-11-12T15:56:23.091Z,8.78
2022-11-12T15:58:50.766Z,8.74
2022-11-12T16:01:18.627Z,8.74
2022-11-12T16:03:46.289Z,8.75
2022-11-12T16:06:14.169Z,8.73
2022-11-12T16:08:41.832Z,8.71
2022-11-12T16:11:31.499Z,8.67
2022-11-12T16:13:59.173Z,8.65
2022-11-12T16:16:27.514Z,8.64
2022-11-12T16:18:55.404Z,8.60
2022-11-12T16:21:24.274Z,8.59
2022-11-12T16:23:51.865Z,8.48
2022-11-12T16:26:31.890Z,8.47
2022-11-12T16:28:59.684Z,8.44
2022-11-12T16:31:27.597Z,8.43
2022-11-12T16:33:55.244Z,8.42
2022-11-12T16:36:22.884Z,8.40
2022-11-12T16:38:50.506Z,8.37
2022-11-12T16:41:18.502Z,8.33
2022-11-12T16:43:46.200Z,8.31
2022-11-12T16:46:27.181Z,8.26
2022-11-12T16:48:55.327Z,8.27
2022-11-12T16:51:24.227Z,8.24
2022-11-12T16:53:51.965Z,8.26
2022-11-12T16:56:21.970Z,8.28
2022-11-12T16:58:50.694Z,8.26
2022-11-12T17:01:27.161Z,8.29
2022-11-12T17:03:56.724Z,8.33
2022-11-12T17:06:33.326Z,8.33
2022-11-12T17:09:01.129Z,8.35
2022-11-12T17:11:28.807Z,8.36
2022-11-12T17:13:56.483Z,8.41
2022-11-12T17:16:24.171Z,8.45
2022-11-12T17:18:55.427Z,8.51
2022-11-12T17:21:23.712Z,8.57
2022-11-12T17:23:52.065Z,8.63
2022-11-12T17:26:21.581Z,8.65
2022-11-12T17:28:54.027Z,8.65
2022-11-12T17:31:25.666Z,8.66
2022-11-12T17:33:54.704Z,8.66
2022-11-12T17:36:25.157Z,8.68
2022-11-12T17:39:00.230Z,8.71
2022-11-12T17:41:32.176Z,8.72
2022-11-12T17:44:01.490Z,8.73
2022-11-12T17:46:29.829Z,8.69
2022-11-12T17:48:58.006Z,8.66
2022-11-12T17:51:28.188Z,8.65
2022-11-12T17:53:56.228Z,8.64
2022-11-12T17:56:25.016Z,8.65
2022-11-12T17:58:53.576Z,8.64
2022-11-12T18:01:26.512Z,8.62
2022-11-12T18:03:56.270Z,8.61
2022-11-12T18:06:29.664Z,8.61
2022-11-12T18:09:09.239Z,8.60
2022-11-12T18:11:49.757Z,8.63
2022-11-12T18:14:17.972Z,8.66
2022-11-12T18:16:46.193Z,8.66
2022-11-12T18:19:14.084Z,8.64
2022-11-12T18:21:42.071Z,8.63
2022-11-12T18:24:16.103Z,8.59
2022-11-12T18:26:45.225Z,8.56
2022-11-12T18:29:13.622Z,8.55
2022-11-12T18:31:41.744Z,8.54
2022-11-12T18:34:14.589Z,8.51
2022-11-12T18:36:42.344Z,8.49
2022-11-12T18:39:10.181Z,8.48
2022-11-12T18:41:38.010Z,8.50
2022-11-12T18:44:05.845Z,8.54
2022-11-12T18:46:33.455Z,8.51
2022-11-12T18:49:01.125Z,8.54
2022-11-12T18:51:28.959Z,8.54
2022-11-12T18:53:56.647Z,8.58
2022-11-12T18:56:24.320Z,8.62
2022-11-12T18:58:52.078Z,8.64
2022-11-12T19:01:22.558Z,8.68
2022-11-12T19:03:54.615Z,8.68
2022-11-12T19:06:23.435Z,8.69
2022-11-12T19:08:51.897Z,8.72
2022-11-12T19:11:22.835Z,8.75
2022-11-12T19:13:54.735Z,8.73
2022-11-12T19:16:24.281Z,8.74
2022-11-12T19:18:53.343Z,8.78
2022-11-12T19:21:26.611Z,8.78
2022-11-12T19:23:56.000Z,8.76
2022-11-12T19:26:24.583Z,8.73
2022-11-12T19:28:52.240Z,8.70
2022-11-12T19:31:25.620Z,8.65
2022-11-12T19:33:53.686Z,8.61
2022-11-12T19:36:24.331Z,8.51
2022-11-12T19:38:56.753Z,8.48
2022-11-12T19:41:25.350Z,8.46
2022-11-12T19:43:53.889Z,8.44
2022-11-12T19:46:22.028Z,8.40
2022-11-12T19:48:50.118Z,8.37
2022-11-12T19:51:17.775Z,8.33
2022-11-12T19:53:45.650Z,8.29
2022-11-12T19:56:18.081Z,8.28
2022-11-12T19:58:47.203Z,8.24
2022-11-12T20:01:18.269Z,8.21
2022-11-12T20:03:46.279Z,8.17
2022-11-12T20:06:20.020Z,8.15
2022-11-12T20:08:48.257Z,8.15
2022-11-12T20:11:17.301Z,8.13
2022-11-12T20:13:44.899Z,8.08
2022-11-12T20:16:23.831Z,8.05
2022-11-12T20:18:56.887Z,8.01
2022-11-12T20:21:25.373Z,7.96
2022-11-12T20:23:53.183Z,7.93
2022-11-12T20:26:20.908Z,7.93
2022-11-12T20:28:48.835Z,7.90
2022-11-12T20:31:21.731Z,7.88
2022-11-12T20:33:51.523Z,7.83
2022-11-12T20:36:21.895Z,7.82
2022-11-12T20:38:54.529Z,7.81
2022-11-12T20:41:27.051Z,7.79
2022-11-12T20:43:56.213Z,7.80
2022-11-12T20:46:24.409Z,7.79
2022-11-12T20:48:52.392Z,7.79
2022-11-12T20:51:24.713Z,7.83
2022-11-12T20:54:00.407Z,7.81
2022-11-12T20:56:31.129Z,7.82
2022-11-12T20:59:00.254Z,7.80
2022-11-12T21:01:29.808Z,7.76
2022-11-12T21:03:58.542Z,7.77
2022-11-12T21:06:27.793Z,7.75
2022-11-12T21:08:57.991Z,7.75
2022-11-12T21:11:25.623Z,7.74
2022-11-12T21:13:53.332Z,7.72
2022-11-12T21:16:21.089Z,7.72
2022-11-12T21:18:48.836Z,7.73
2022-11-12T21:21:20.236Z,7.71
2022-11-12T21:23:50.927Z,7.71
2022-11-12T21:26:20.699Z,7.69
2022-11-12T21:28:54.037Z,7.65
2022-11-12T21:31:24.127Z,7.65
2022-11-12T21:34:01.262Z,7.62
2022-11-12T21:36:29.873Z,7.62
2022-11-12T21:38:57.658Z,7.65
2022-11-12T21:41:28.277Z,7.63
2022-11-12T21:43:56.285Z,7.67
2022-11-12T21:46:29.403Z,7.65
2022-11-12T21:48:58.541Z,7.59
2022-11-12T21:51:28.482Z,7.59
2022-11-12T21:54:03.908Z,7.59
2022-11-12T21:56:32.525Z,7.61
2022-11-12T21:59:05.092Z,7.59
2022-11-12T22:01:35.194Z,7.60
2022-11-12T22:04:07.887Z,7.57
2022-11-12T22:06:39.026Z,7.52
2022-11-12T22:09:07.407Z,7.48
2022-11-12T22:11:35.242Z,7.43
2022-11-12T22:14:03.274Z,7.40
2022-11-12T22:16:31.054Z,7.43
2022-11-12T22:19:00.467Z,7.40
2022-11-12T22:21:39.436Z,7.42
2022-11-12T22:24:08.249Z,7.42
2022-11-12T22:26:35.917Z,7.43
2022-11-12T22:29:03.659Z,7.38
2022-11-12T22:31:33.527Z,7.39
2022-11-12T22:34:03.608Z,7.39
2022-11-12T22:36:32.851Z,7.36
2022-11-12T22:39:00.542Z,7.38
2022-11-12T22:41:30.748Z,7.37
2022-11-12T22:44:01.252Z,7.37
2022-11-12T22:46:31.591Z,7.36
2022-11-12T22:49:00.231Z,7.33
2022-11-12T22:51:30.200Z,7.33
2022-11-12T22:54:04.066Z,7.30
2022-11-12T22:56:34.378Z,7.31
2022-11-12T22:59:06.307Z,7.32
2022-11-12T23:01:36.273Z,7.29
2022-11-12T23:04:06.261Z,7.23
2022-11-12T23:06:34.408Z,7.18
2022-11-12T23:09:02.717Z,7.14
2022-11-12T23:11:30.781Z,7.10
2022-11-12T23:13:58.545Z,7.09
2022-11-12T23:16:34.228Z,7.10
2022-11-12T23:19:01.981Z,7.02
2022-11-12T23:21:30.950Z,7.03
2022-11-12T23:24:00.073Z,7.03
2022-11-12T23:26:32.133Z,7.05
2022-11-12T23:29:00.289Z,7.01
2022-11-12T23:31:30.286Z,6.98
2022-11-12T23:34:00.128Z,6.96
2022-11-12T23:36:28.853Z,6.95
2022-11-12T23:38:57.915Z,6.92
2022-11-12T23:41:27.355Z,6.93
2022-11-12T23:43:56.159Z,6.92
2022-11-12T23:46:24.625Z,6.89
2022-11-12T23:48:52.677Z,6.85
2022-11-12T23:51:22.738Z,6.88
2022-11-12T23:53:50.853Z,6.89
2022-11-12T23:56:20.940Z,6.90
2022-11-12T23:58:48.955Z,6.86
